sensor_id;sensor_type;location;lat;lon;timestamp;P1;durP1;ratioP1;P2;durP2;ratioP2
18265;SDS011;9259;48.194;16.322;2023-03-21T00:02:25;14.13;;;7.50;;
18265;SDS011;9259;48.194;16.322;2023-03-21T00:04:53;16.30;;;7.63;;
18265;SDS011;9259;48.194;16.322;2023-03-21T00:07:21;11.23;;;7.10;;
18265;SDS011;9259;48.194;16.322;2023-03-21T00:09:49;11.60;;;7.63;;
18265;SDS011;9259;48.194;16.322;2023-03-21T00:12:17;11.97;;;7.20;;
18265;SDS011;9259;48.194;16.322;2023-03-21T00:14:45;13.40;;;7.07;;
18265;SDS011;9259;48.194;16.322;2023-03-21T00:17:13;13.23;;;7.23;;
18265;SDS011;9259;48.194;16.322;2023-03-21T00:19:43;10.67;;;7.10;;
18265;SDS011;9259;48.194;16.322;2023-03-21T00:22:11;10.23;;;7.00;;
18265;SDS011;9259;48.194;16.322;2023-03-21T00:24:39;12.70;;;7.77;;
18265;SDS011;9259;48.194;16.322;2023-03-21T00:27:07;12.67;;;7.27;;
18265;SDS011;9259;48.194;16.322;2023-03-21T00:29:35;11.97;;;7.47;;
18265;SDS011;9259;48.194;16.322;2023-03-21T00:32:04;13.17;;;7.10;;
18265;SDS011;9259;48.194;16.322;2023-03-21T00:34:32;12.97;;;7.97;;
18265;SDS011;9259;48.194;16.322;2023-03-21T00:37:04;12.57;;;7.67;;
18265;SDS011;9259;48.194;16.322;2023-03-21T00:39:33;12.43;;;7.77;;
18265;SDS011;9259;48.194;16.322;2023-03-21T00:42:01;11.77;;;6.80;;
18265;SDS011;9259;48.194;16.322;2023-03-21T00:44:31;13.50;;;7.67;;
18265;SDS011;9259;48.194;16.322;2023-03-21T00:47:01;16.30;;;7.33;;
18265;SDS011;9259;48.194;16.322;2023-03-21T00:49:30;11.40;;;7.63;;
18265;SDS011;9259;48.194;16.322;2023-03-21T00:51:58;12.03;;;7.90;;
18265;SDS011;9259;48.194;16.322;2023-03-21T00:54:28;12.60;;;7.57;;
18265;SDS011;9259;48.194;16.322;2023-03-21T00:56:56;17.90;;;8.00;;
18265;SDS011;9259;48.194;16.322;2023-03-21T00:59:24;13.23;;;7.47;;
18265;SDS011;9259;48.194;16.322;2023-03-21T01:01:52;12.40;;;7.47;;
18265;SDS011;9259;48.194;16.322;2023-03-21T01:04:20;14.13;;;7.00;;
18265;SDS011;9259;48.194;16.322;2023-03-21T01:06:51;11.53;;;7.23;;
18265;SDS011;9259;48.194;16.322;2023-03-21T01:09:20;12.90;;;7.43;;
18265;SDS011;9259;48.194;16.322;2023-03-21T01:11:51;11.20;;;6.50;;
18265;SDS011;9259;48.194;16.322;2023-03-21T01:14:21;10.17;;;6.13;;
18265;SDS011;9259;48.194;16.322;2023-03-21T01:16:49;12.33;;;6.20;;
18265;SDS011;9259;48.194;16.322;2023-03-21T01:19:19;9.77;;;6.13;;
18265;SDS011;9259;48.194;16.322;2023-03-21T01:21:50;10.50;;;5.83;;
18265;SDS011;9259;48.194;16.322;2023-03-21T01:24:18;9.80;;;5.33;;
18265;SDS011;9259;48.194;16.322;2023-03-21T01:26:46;9.77;;;5.23;;
18265;SDS011;9259;48.194;16.322;2023-03-21T01:29:16;8.53;;;4.87;;
18265;SDS011;9259;48.194;16.322;2023-03-21T01:31:44;8.63;;;4.57;;
18265;SDS011;9259;48.194;16.322;2023-03-21T01:34:12;8.03;;;4.80;;
18265;SDS011;9259;48.194;16.322;2023-03-21T01:36:40;5.97;;;3.90;;
18265;SDS011;9259;48.194;16.322;2023-03-21T01:39:08;6.10;;;3.83;;
18265;SDS011;9259;48.194;16.322;2023-03-21T01:41:37;8.10;;;3.60;;
18265;SDS011;9259;48.194;16.322;2023-03-21T01:44:06;5.33;;;3.30;;
18265;SDS011;9259;48.194;16.322;2023-03-21T01:46:40;6.07;;;3.50;;
18265;SDS011;9259;48.194;16.322;2023-03-21T01:49:10;4.93;;;3.10;;
18265;SDS011;9259;48.194;16.322;2023-03-21T01:51:41;6.43;;;3.20;;
18265;SDS011;9259;48.194;16.322;2023-03-21T01:54:13;5.53;;;2.70;;
18265;SDS011;9259;48.194;16.322;2023-03-21T01:56:43;5.17;;;3.37;;
18265;SDS011;9259;48.194;16.322;2023-03-21T01:59:13;6.00;;;2.93;;
18265;SDS011;9259;48.194;16.322;2023-03-21T02:01:48;4.37;;;3.13;;
18265;SDS011;9259;48.194;16.322;2023-03-21T02:04:17;5.53;;;3.23;;
18265;SDS011;9259;48.194;16.322;2023-03-21T02:06:54;5.67;;;3.13;;
18265;SDS011;9259;48.194;16.322;2023-03-21T02:09:26;6.27;;;3.10;;
18265;SDS011;9259;48.194;16.322;2023-03-21T02:11:58;3.90;;;2.90;;
18265;SDS011;9259;48.194;16.322;2023-03-21T02:14:26;4.40;;;3.00;;
18265;SDS011;9259;48.194;16.322;2023-03-21T02:16:59;7.27;;;3.23;;
18265;SDS011;9259;48.194;16.322;2023-03-21T02:22:39;6.83;;;2.93;;
18265;SDS011;9259;48.194;16.322;2023-03-21T02:25:28;4.87;;;3.00;;
18265;SDS011;9259;48.194;16.322;2023-03-21T02:28:22;5.63;;;2.83;;
18265;SDS011;9259;48.194;16.322;2023-03-21T02:31:10;6.73;;;3.70;;
18265;SDS011;9259;48.194;16.322;2023-03-21T02:36:51;5.80;;;3.40;;
18265;SDS011;9259;48.194;16.322;2023-03-21T02:39:23;7.53;;;4.00;;
18265;SDS011;9259;48.194;16.322;2023-03-21T02:41:53;5.80;;;3.73;;
18265;SDS011;9259;48.194;16.322;2023-03-21T02:44:28;5.70;;;3.63;;
18265;SDS011;9259;48.194;16.322;2023-03-21T02:47:02;8.50;;;4.07;;
18265;SDS011;9259;48.194;16.322;2023-03-21T02:49:34;6.07;;;3.60;;
18265;SDS011;9259;48.194;16.322;2023-03-21T02:52:09;5.93;;;3.87;;
18265;SDS011;9259;48.194;16.322;2023-03-21T02:54:40;6.17;;;3.70;;
18265;SDS011;9259;48.194;16.322;2023-03-21T02:57:10;6.57;;;3.70;;
18265;SDS011;9259;48.194;16.322;2023-03-21T02:59:38;6.00;;;3.83;;
18265;SDS011;9259;48.194;16.322;2023-03-21T03:02:08;6.13;;;3.37;;
18265;SDS011;9259;48.194;16.322;2023-03-21T03:04:37;8.50;;;4.00;;
18265;SDS011;9259;48.194;16.322;2023-03-21T03:07:10;6.20;;;4.00;;
18265;SDS011;9259;48.194;16.322;2023-03-21T03:09:48;6.63;;;4.20;;
18265;SDS011;9259;48.194;16.322;2023-03-21T03:12:24;5.90;;;3.73;;
18265;SDS011;9259;48.194;16.322;2023-03-21T03:14:59;6.70;;;3.90;;
18265;SDS011;9259;48.194;16.322;2023-03-21T03:17:37;5.60;;;3.70;;
18265;SDS011;9259;48.194;16.322;2023-03-21T03:20:18;8.07;;;4.20;;
18265;SDS011;9259;48.194;16.322;2023-03-21T03:22:56;8.93;;;4.53;;
18265;SDS011;9259;48.194;16.322;2023-03-21T03:25:30;6.57;;;4.17;;
18265;SDS011;9259;48.194;16.322;2023-03-21T03:28:02;6.57;;;4.63;;
18265;SDS011;9259;48.194;16.322;2023-03-21T03:30:32;7.43;;;4.57;;
18265;SDS011;9259;48.194;16.322;2023-03-21T03:33:01;6.70;;;4.73;;
18265;SDS011;9259;48.194;16.322;2023-03-21T03:35:31;8.73;;;5.13;;
18265;SDS011;9259;48.194;16.322;2023-03-21T03:38:02;7.80;;;4.93;;
18265;SDS011;9259;48.194;16.322;2023-03-21T03:40:34;8.83;;;5.23;;
18265;SDS011;9259;48.194;16.322;2023-03-21T03:43:07;10.07;;;6.07;;
18265;SDS011;9259;48.194;16.322;2023-03-21T03:45:38;9.80;;;6.13;;
18265;SDS011;9259;48.194;16.322;2023-03-21T03:48:12;8.67;;;6.10;;
18265;SDS011;9259;48.194;16.322;2023-03-21T03:50:46;10.00;;;6.00;;
18265;SDS011;9259;48.194;16.322;2023-03-21T03:53:18;8.43;;;6.00;;
18265;SDS011;9259;48.194;16.322;2023-03-21T03:55:48;11.10;;;6.17;;
18265;SDS011;9259;48.194;16.322;2023-03-21T03:58:16;9.50;;;6.27;;
18265;SDS011;9259;48.194;16.322;2023-03-21T04:00:45;8.67;;;6.13;;
18265;SDS011;9259;48.194;16.322;2023-03-21T04:03:14;9.90;;;6.50;;
18265;SDS011;9259;48.194;16.322;2023-03-21T04:05:43;12.60;;;6.97;;
18265;SDS011;9259;48.194;16.322;2023-03-21T04:08:11;9.47;;;6.27;;
18265;SDS011;9259;48.194;16.322;2023-03-21T04:10:41;11.53;;;6.77;;
18265;SDS011;9259;48.194;16.322;2023-03-21T04:13:09;10.33;;;6.73;;
18265;SDS011;9259;48.194;16.322;2023-03-21T04:15:38;9.60;;;6.30;;
18265;SDS011;9259;48.194;16.322;2023-03-21T04:18:06;10.93;;;6.57;;
18265;SDS011;9259;48.194;16.322;2023-03-21T04:20:34;10.63;;;6.30;;
18265;SDS011;9259;48.194;16.322;2023-03-21T04:23:02;9.33;;;6.70;;
18265;SDS011;9259;48.194;16.322;2023-03-21T04:25:32;9.80;;;6.17;;
18265;SDS011;9259;48.194;16.322;2023-03-21T04:28:01;9.83;;;6.30;;
18265;SDS011;9259;48.194;16.322;2023-03-21T04:30:29;10.20;;;5.63;;
18265;SDS011;9259;48.194;16.322;2023-03-21T04:32:58;10.07;;;5.83;;
18265;SDS011;9259;48.194;16.322;2023-03-21T04:35:27;10.13;;;5.80;;
18265;SDS011;9259;48.194;16.322;2023-03-21T04:37:55;9.43;;;5.70;;
18265;SDS011;9259;48.194;16.322;2023-03-21T04:40:23;10.87;;;4.87;;
18265;SDS011;9259;48.194;16.322;2023-03-21T04:42:51;10.30;;;5.33;;
18265;SDS011;9259;48.194;16.322;2023-03-21T04:45:20;8.63;;;5.40;;
18265;SDS011;9259;48.194;16.322;2023-03-21T04:47:49;8.10;;;5.57;;
18265;SDS011;9259;48.194;16.322;2023-03-21T04:50:17;9.43;;;5.33;;
18265;SDS011;9259;48.194;16.322;2023-03-21T04:52:45;10.13;;;5.50;;
18265;SDS011;9259;48.194;16.322;2023-03-21T04:55:13;9.03;;;5.37;;
18265;SDS011;9259;48.194;16.322;2023-03-21T04:57:41;9.63;;;5.53;;
18265;SDS011;9259;48.194;16.322;2023-03-21T05:00:10;8.67;;;5.50;;
18265;SDS011;9259;48.194;16.322;2023-03-21T05:02:41;10.67;;;6.10;;
18265;SDS011;9259;48.194;16.322;2023-03-21T05:05:09;10.87;;;6.10;;
18265;SDS011;9259;48.194;16.322;2023-03-21T05:07:38;13.43;;;5.90;;
18265;SDS011;9259;48.194;16.322;2023-03-21T05:10:07;9.83;;;5.77;;
18265;SDS011;9259;48.194;16.322;2023-03-21T05:12:37;12.57;;;6.60;;
18265;SDS011;9259;48.194;16.322;2023-03-21T05:15:06;11.10;;;6.20;;
18265;SDS011;9259;48.194;16.322;2023-03-21T05:17:35;11.67;;;6.30;;
18265;SDS011;9259;48.194;16.322;2023-03-21T05:20:05;9.03;;;5.80;;
18265;SDS011;9259;48.194;16.322;2023-03-21T05:22:36;11.10;;;6.33;;
18265;SDS011;9259;48.194;16.322;2023-03-21T05:25:06;12.37;;;5.93;;
18265;SDS011;9259;48.194;16.322;2023-03-21T05:27:36;11.40;;;6.30;;
18265;SDS011;9259;48.194;16.322;2023-03-21T05:30:10;10.33;;;6.43;;
18265;SDS011;9259;48.194;16.322;2023-03-21T05:32:40;10.70;;;5.93;;
18265;SDS011;9259;48.194;16.322;2023-03-21T05:35:10;11.83;;;6.73;;
18265;SDS011;9259;48.194;16.322;2023-03-21T05:37:38;12.63;;;6.60;;
18265;SDS011;9259;48.194;16.322;2023-03-21T05:40:07;11.83;;;6.70;;
18265;SDS011;9259;48.194;16.322;2023-03-21T05:42:35;10.70;;;6.20;;
18265;SDS011;9259;48.194;16.322;2023-03-21T05:45:04;13.87;;;6.63;;
18265;SDS011;9259;48.194;16.322;2023-03-21T05:47:33;11.90;;;6.90;;
18265;SDS011;9259;48.194;16.322;2023-03-21T05:50:01;12.17;;;6.47;;
18265;SDS011;9259;48.194;16.322;2023-03-21T05:52:31;11.03;;;6.70;;
18265;SDS011;9259;48.194;16.322;2023-03-21T05:54:59;11.73;;;6.77;;
18265;SDS011;9259;48.194;16.322;2023-03-21T05:57:27;10.17;;;6.30;;
18265;SDS011;9259;48.194;16.322;2023-03-21T05:59:57;10.83;;;6.67;;
18265;SDS011;9259;48.194;16.322;2023-03-21T06:02:25;11.07;;;6.67;;
18265;SDS011;9259;48.194;16.322;2023-03-21T06:04:53;10.43;;;6.33;;
18265;SDS011;9259;48.194;16.322;2023-03-21T06:07:22;10.57;;;6.97;;
18265;SDS011;9259;48.194;16.322;2023-03-21T06:09:51;12.30;;;6.83;;
18265;SDS011;9259;48.194;16.322;2023-03-21T06:12:19;10.80;;;6.37;;
18265;SDS011;9259;48.194;16.322;2023-03-21T06:14:48;11.27;;;6.33;;
18265;SDS011;9259;48.194;16.322;2023-03-21T06:17:16;10.13;;;6.40;;
18265;SDS011;9259;48.194;16.322;2023-03-21T06:19:44;13.60;;;6.87;;
18265;SDS011;9259;48.194;16.322;2023-03-21T06:22:12;11.70;;;6.60;;
18265;SDS011;9259;48.194;16.322;2023-03-21T06:24:40;12.53;;;7.00;;
18265;SDS011;9259;48.194;16.322;2023-03-21T06:27:10;14.03;;;7.10;;
18265;SDS011;9259;48.194;16.322;2023-03-21T06:29:38;18.50;;;6.60;;
18265;SDS011;9259;48.194;16.322;2023-03-21T06:32:06;10.73;;;6.87;;
18265;SDS011;9259;48.194;16.322;2023-03-21T06:34:34;11.90;;;6.60;;
18265;SDS011;9259;48.194;16.322;2023-03-21T06:37:02;13.23;;;6.33;;
18265;SDS011;9259;48.194;16.322;2023-03-21T06:39:30;12.23;;;7.10;;
18265;SDS011;9259;48.194;16.322;2023-03-21T06:41:58;11.37;;;6.37;;
18265;SDS011;9259;48.194;16.322;2023-03-21T06:44:28;9.60;;;6.40;;
18265;SDS011;9259;48.194;16.322;2023-03-21T06:46:56;12.53;;;6.47;;
18265;SDS011;9259;48.194;16.322;2023-03-21T06:49:24;10.47;;;6.07;;
18265;SDS011;9259;48.194;16.322;2023-03-21T06:51:52;9.80;;;6.67;;
18265;SDS011;9259;48.194;16.322;2023-03-21T06:54:20;8.70;;;5.83;;
18265;SDS011;9259;48.194;16.322;2023-03-21T06:56:49;10.37;;;5.90;;
18265;SDS011;9259;48.194;16.322;2023-03-21T06:59:17;9.77;;;5.50;;
18265;SDS011;9259;48.194;16.322;2023-03-21T07:01:47;10.63;;;5.83;;
18265;SDS011;9259;48.194;16.322;2023-03-21T07:04:15;7.60;;;5.03;;
18265;SDS011;9259;48.194;16.322;2023-03-21T07:06:43;9.43;;;5.07;;
18265;SDS011;9259;48.194;16.322;2023-03-21T07:09:11;8.97;;;5.30;;
18265;SDS011;9259;48.194;16.322;2023-03-21T07:11:39;8.87;;;4.90;;
18265;SDS011;9259;48.194;16.322;2023-03-21T07:14:07;13.30;;;4.77;;
18265;SDS011;9259;48.194;16.322;2023-03-21T07:16:35;8.97;;;4.97;;
18265;SDS011;9259;48.194;16.322;2023-03-21T07:19:04;8.60;;;5.43;;
18265;SDS011;9259;48.194;16.322;2023-03-21T07:21:32;9.07;;;4.93;;
18265;SDS011;9259;48.194;16.322;2023-03-21T07:24:01;7.00;;;4.67;;
18265;SDS011;9259;48.194;16.322;2023-03-21T07:26:29;6.93;;;4.30;;
18265;SDS011;9259;48.194;16.322;2023-03-21T07:28:57;9.43;;;4.87;;
18265;SDS011;9259;48.194;16.322;2023-03-21T07:31:25;7.13;;;4.00;;
18265;SDS011;9259;48.194;16.322;2023-03-21T07:33:54;7.22;;;4.30;;
18265;SDS011;9259;48.194;16.322;2023-03-21T07:36:23;7.35;;;4.10;;
18265;SDS011;9259;48.194;16.322;2023-03-21T07:38:52;12.48;;;4.40;;
18265;SDS011;9259;48.194;16.322;2023-03-21T07:41:20;8.88;;;4.38;;
18265;SDS011;9259;48.194;16.322;2023-03-21T07:43:49;5.75;;;3.72;;
18265;SDS011;9259;48.194;16.322;2023-03-21T07:46:17;6.13;;;4.20;;
18265;SDS011;9259;48.194;16.322;2023-03-21T07:48:45;5.03;;;3.92;;
18265;SDS011;9259;48.194;16.322;2023-03-21T07:51:13;5.97;;;4.15;;
18265;SDS011;9259;48.194;16.322;2023-03-21T07:53:42;5.72;;;4.10;;
18265;SDS011;9259;48.194;16.322;2023-03-21T07:56:13;6.07;;;3.97;;
18265;SDS011;9259;48.194;16.322;2023-03-21T07:58:41;8.02;;;4.00;;
18265;SDS011;9259;48.194;16.322;2023-03-21T08:01:09;7.15;;;3.88;;
18265;SDS011;9259;48.194;16.322;2023-03-21T08:03:37;6.07;;;4.07;;
18265;SDS011;9259;48.194;16.322;2023-03-21T08:06:06;9.38;;;4.30;;
18265;SDS011;9259;48.194;16.322;2023-03-21T08:08:35;6.85;;;4.18;;
18265;SDS011;9259;48.194;16.322;2023-03-21T08:11:05;11.90;;;4.05;;
18265;SDS011;9259;48.194;16.322;2023-03-21T08:13:33;6.25;;;3.85;;
18265;SDS011;9259;48.194;16.322;2023-03-21T08:16:01;7.60;;;3.83;;
18265;SDS011;9259;48.194;16.322;2023-03-21T08:18:29;7.75;;;4.07;;
18265;SDS011;9259;48.194;16.322;2023-03-21T08:20:58;9.25;;;3.80;;
18265;SDS011;9259;48.194;16.322;2023-03-21T08:23:26;7.10;;;4.30;;
18265;SDS011;9259;48.194;16.322;2023-03-21T08:25:54;8.27;;;4.25;;
18265;SDS011;9259;48.194;16.322;2023-03-21T08:28:24;10.38;;;4.75;;
18265;SDS011;9259;48.194;16.322;2023-03-21T08:30:52;9.00;;;4.50;;
18265;SDS011;9259;48.194;16.322;2023-03-21T08:33:21;10.02;;;4.53;;
18265;SDS011;9259;48.194;16.322;2023-03-21T08:35:49;8.65;;;5.07;;
18265;SDS011;9259;48.194;16.322;2023-03-21T08:38:17;8.23;;;5.15;;
18265;SDS011;9259;48.194;16.322;2023-03-21T08:40:46;6.97;;;4.55;;
18265;SDS011;9259;48.194;16.322;2023-03-21T08:43:14;7.78;;;5.03;;
18265;SDS011;9259;48.194;16.322;2023-03-21T08:45:43;8.65;;;5.25;;
18265;SDS011;9259;48.194;16.322;2023-03-21T08:48:11;8.18;;;4.68;;
18265;SDS011;9259;48.194;16.322;2023-03-21T08:50:40;8.48;;;5.07;;
18265;SDS011;9259;48.194;16.322;2023-03-21T08:53:08;8.48;;;5.07;;
18265;SDS011;9259;48.194;16.322;2023-03-21T08:55:36;9.98;;;5.43;;
18265;SDS011;9259;48.194;16.322;2023-03-21T08:58:04;8.75;;;5.40;;
18265;SDS011;9259;48.194;16.322;2023-03-21T09:00:32;11.65;;;5.45;;
18265;SDS011;9259;48.194;16.322;2023-03-21T09:03:02;11.68;;;5.40;;
18265;SDS011;9259;48.194;16.322;2023-03-21T09:05:30;8.85;;;5.68;;
18265;SDS011;9259;48.194;16.322;2023-03-21T09:07:58;10.63;;;5.40;;
18265;SDS011;9259;48.194;16.322;2023-03-21T09:10:28;9.02;;;5.65;;
18265;SDS011;9259;48.194;16.322;2023-03-21T09:12:56;6.85;;;4.55;;
18265;SDS011;9259;48.194;16.322;2023-03-21T09:15:25;8.38;;;4.95;;
18265;SDS011;9259;48.194;16.322;2023-03-21T09:17:54;7.90;;;4.78;;
18265;SDS011;9259;48.194;16.322;2023-03-21T09:20:25;10.45;;;4.82;;
18265;SDS011;9259;48.194;16.322;2023-03-21T09:22:57;9.38;;;5.22;;
18265;SDS011;9259;48.194;16.322;2023-03-21T09:25:26;11.48;;;4.80;;
18265;SDS011;9259;48.194;16.322;2023-03-21T09:27:55;6.65;;;4.53;;
18265;SDS011;9259;48.194;16.322;2023-03-21T09:30:24;8.57;;;4.70;;
18265;SDS011;9259;48.194;16.322;2023-03-21T09:32:52;8.70;;;5.05;;
18265;SDS011;9259;48.194;16.322;2023-03-21T09:35:21;8.27;;;4.68;;
18265;SDS011;9259;48.194;16.322;2023-03-21T09:37:53;7.97;;;4.25;;
18265;SDS011;9259;48.194;16.322;2023-03-21T09:40:23;10.52;;;4.75;;
18265;SDS011;9259;48.194;16.322;2023-03-21T09:43:05;7.18;;;4.30;;
18265;SDS011;9259;48.194;16.322;2023-03-21T09:45:42;7.55;;;4.05;;
18265;SDS011;9259;48.194;16.322;2023-03-21T09:48:14;8.63;;;4.40;;
18265;SDS011;9259;48.194;16.322;2023-03-21T09:50:54;7.30;;;4.00;;
18265;SDS011;9259;48.194;16.322;2023-03-21T09:53:26;7.65;;;4.72;;
18265;SDS011;9259;48.194;16.322;2023-03-21T09:55:55;7.03;;;4.35;;
18265;SDS011;9259;48.194;16.322;2023-03-21T09:58:24;6.20;;;4.03;;
18265;SDS011;9259;48.194;16.322;2023-03-21T10:00:56;8.07;;;4.57;;
18265;SDS011;9259;48.194;16.322;2023-03-21T10:03:28;8.85;;;5.13;;
18265;SDS011;9259;48.194;16.322;2023-03-21T10:05:59;6.95;;;4.30;;
18265;SDS011;9259;48.194;16.322;2023-03-21T10:08:34;6.90;;;4.90;;
18265;SDS011;9259;48.194;16.322;2023-03-21T10:11:08;7.47;;;4.63;;
18265;SDS011;9259;48.194;16.322;2023-03-21T10:13:39;6.80;;;4.00;;
18265;SDS011;9259;48.194;16.322;2023-03-21T10:16:10;7.07;;;4.03;;
18265;SDS011;9259;48.194;16.322;2023-03-21T10:18:40;8.02;;;3.80;;
18265;SDS011;9259;48.194;16.322;2023-03-21T10:21:10;7.07;;;3.75;;
18265;SDS011;9259;48.194;16.322;2023-03-21T10:23:44;6.22;;;3.63;;
18265;SDS011;9259;48.194;16.322;2023-03-21T10:26:12;6.85;;;4.25;;
18265;SDS011;9259;48.194;16.322;2023-03-21T10:28:41;8.27;;;4.13;;
18265;SDS011;9259;48.194;16.322;2023-03-21T10:31:13;5.75;;;4.15;;
18265;SDS011;9259;48.194;16.322;2023-03-21T10:33:43;10.48;;;5.28;;
18265;SDS011;9259;48.194;16.322;2023-03-21T10:36:14;9.73;;;4.40;;
18265;SDS011;9259;48.194;16.322;2023-03-21T10:38:45;8.82;;;4.65;;
18265;SDS011;9259;48.194;16.322;2023-03-21T10:41:15;8.30;;;4.93;;
18265;SDS011;9259;48.194;16.322;2023-03-21T10:43:45;8.63;;;4.65;;
18265;SDS011;9259;48.194;16.322;2023-03-21T10:46:16;7.35;;;4.38;;
18265;SDS011;9259;48.194;16.322;2023-03-21T10:48:49;8.43;;;4.13;;
18265;SDS011;9259;48.194;16.322;2023-03-21T10:51:19;7.55;;;4.35;;
18265;SDS011;9259;48.194;16.322;2023-03-21T10:53:51;6.13;;;4.15;;
18265;SDS011;9259;48.194;16.322;2023-03-21T10:56:22;5.78;;;4.53;;
18265;SDS011;9259;48.194;16.322;2023-03-21T10:58:51;7.05;;;4.53;;
18265;SDS011;9259;48.194;16.322;2023-03-21T11:01:25;8.38;;;4.63;;
18265;SDS011;9259;48.194;16.322;2023-03-21T11:03:57;12.63;;;4.22;;
18265;SDS011;9259;48.194;16.322;2023-03-21T11:06:27;6.22;;;3.75;;
18265;SDS011;9259;48.194;16.322;2023-03-21T11:09:00;6.47;;;4.20;;
18265;SDS011;9259;48.194;16.322;2023-03-21T11:11:32;7.20;;;4.22;;
18265;SDS011;9259;48.194;16.322;2023-03-21T11:14:04;8.32;;;4.63;;
18265;SDS011;9259;48.194;16.322;2023-03-21T11:16:38;8.02;;;4.47;;
18265;SDS011;9259;48.194;16.322;2023-03-21T11:19:12;7.75;;;5.07;;
18265;SDS011;9259;48.194;16.322;2023-03-21T11:21:41;6.45;;;4.65;;
18265;SDS011;9259;48.194;16.322;2023-03-21T11:24:13;8.70;;;4.63;;
18265;SDS011;9259;48.194;16.322;2023-03-21T11:26:43;9.63;;;4.72;;
18265;SDS011;9259;48.194;16.322;2023-03-21T11:29:17;8.85;;;5.00;;
18265;SDS011;9259;48.194;16.322;2023-03-21T11:31:49;6.88;;;4.30;;
18265;SDS011;9259;48.194;16.322;2023-03-21T11:34:24;8.05;;;3.70;;
18265;SDS011;9259;48.194;16.322;2023-03-21T11:36:56;7.80;;;4.28;;
18265;SDS011;9259;48.194;16.322;2023-03-21T11:39:34;7.53;;;4.82;;
18265;SDS011;9259;48.194;16.322;2023-03-21T11:42:05;8.23;;;4.78;;
18265;SDS011;9259;48.194;16.322;2023-03-21T11:45:01;8.70;;;4.82;;
18265;SDS011;9259;48.194;16.322;2023-03-21T11:47:33;7.53;;;4.50;;
18265;SDS011;9259;48.194;16.322;2023-03-21T11:50:01;6.53;;;3.97;;
18265;SDS011;9259;48.194;16.322;2023-03-21T11:52:35;5.57;;;3.78;;
18265;SDS011;9259;48.194;16.322;2023-03-21T11:55:12;5.65;;;4.15;;
18265;SDS011;9259;48.194;16.322;2023-03-21T11:58:00;7.28;;;3.45;;
18265;SDS011;9259;48.194;16.322;2023-03-21T12:00:37;6.15;;;2.75;;
18265;SDS011;9259;48.194;16.322;2023-03-21T12:03:15;6.22;;;2.63;;
18265;SDS011;9259;48.194;16.322;2023-03-21T12:06:12;5.45;;;2.80;;
18265;SDS011;9259;48.194;16.322;2023-03-21T12:08:53;6.35;;;2.58;;
18265;SDS011;9259;48.194;16.322;2023-03-21T12:11:33;3.28;;;2.50;;
18265;SDS011;9259;48.194;16.322;2023-03-21T12:14:08;6.93;;;3.75;;
18265;SDS011;9259;48.194;16.322;2023-03-21T12:16:45;7.47;;;3.15;;
18265;SDS011;9259;48.194;16.322;2023-03-21T12:19:28;5.25;;;3.35;;
18265;SDS011;9259;48.194;16.322;2023-03-21T12:22:09;3.45;;;2.40;;
18265;SDS011;9259;48.194;16.322;2023-03-21T12:24:42;6.15;;;2.53;;
18265;SDS011;9259;48.194;16.322;2023-03-21T12:27:16;4.13;;;2.72;;
18265;SDS011;9259;48.194;16.322;2023-03-21T12:29:54;4.78;;;2.50;;
18265;SDS011;9259;48.194;16.322;2023-03-21T12:32:41;3.95;;;2.75;;
18265;SDS011;9259;48.194;16.322;2023-03-21T12:35:23;4.22;;;2.53;;
18265;SDS011;9259;48.194;16.322;2023-03-21T12:37:58;3.65;;;2.15;;
18265;SDS011;9259;48.194;16.322;2023-03-21T12:40:33;2.92;;;1.95;;
18265;SDS011;9259;48.194;16.322;2023-03-21T12:43:16;2.65;;;1.80;;
18265;SDS011;9259;48.194;16.322;2023-03-21T12:45:53;3.53;;;2.42;;
18265;SDS011;9259;48.194;16.322;2023-03-21T12:48:25;3.85;;;2.33;;
18265;SDS011;9259;48.194;16.322;2023-03-21T12:50:58;3.20;;;2.17;;
18265;SDS011;9259;48.194;16.322;2023-03-21T12:53:33;4.78;;;2.20;;
18265;SDS011;9259;48.194;16.322;2023-03-21T12:56:05;5.57;;;2.22;;
18265;SDS011;9259;48.194;16.322;2023-03-21T12:58:38;2.95;;;2.28;;
18265;SDS011;9259;48.194;16.322;2023-03-21T13:01:10;3.30;;;2.30;;
18265;SDS011;9259;48.194;16.322;2023-03-21T13:03:39;3.25;;;2.20;;
18265;SDS011;9259;48.194;16.322;2023-03-21T13:06:10;5.45;;;2.08;;
18265;SDS011;9259;48.194;16.322;2023-03-21T13:08:40;4.35;;;2.20;;
18265;SDS011;9259;48.194;16.322;2023-03-21T13:11:13;4.65;;;1.70;;
18265;SDS011;9259;48.194;16.322;2023-03-21T13:13:45;3.28;;;2.13;;
18265;SDS011;9259;48.194;16.322;2023-03-21T13:16:17;3.15;;;1.98;;
18265;SDS011;9259;48.194;16.322;2023-03-21T13:18:53;4.45;;;2.08;;
18265;SDS011;9259;48.194;16.322;2023-03-21T13:21:29;3.70;;;2.03;;
18265;SDS011;9259;48.194;16.322;2023-03-21T13:24:16;7.43;;;2.03;;
18265;SDS011;9259;48.194;16.322;2023-03-21T13:26:55;2.60;;;2.00;;
18265;SDS011;9259;48.194;16.322;2023-03-21T13:29:31;3.65;;;1.30;;
18265;SDS011;9259;48.194;16.322;2023-03-21T13:32:09;2.60;;;1.70;;
18265;SDS011;9259;48.194;16.322;2023-03-21T13:34:52;3.35;;;1.80;;
18265;SDS011;9259;48.194;16.322;2023-03-21T13:37:22;2.28;;;1.80;;
18265;SDS011;9259;48.194;16.322;2023-03-21T13:39:58;3.03;;;1.45;;
18265;SDS011;9259;48.194;16.322;2023-03-21T13:42:34;1.75;;;1.30;;
18265;SDS011;9259;48.194;16.322;2023-03-21T13:45:11;3.25;;;1.55;;
18265;SDS011;9259;48.194;16.322;2023-03-21T13:47:52;1.73;;;1.50;;
18265;SDS011;9259;48.194;16.322;2023-03-21T13:53:23;2.95;;;1.50;;
18265;SDS011;9259;48.194;16.322;2023-03-21T13:55:58;3.67;;;1.77;;
18265;SDS011;9259;48.194;16.322;2023-03-21T13:58:35;3.80;;;1.58;;
18265;SDS011;9259;48.194;16.322;2023-03-21T14:03:56;2.85;;;1.70;;
18265;SDS011;9259;48.194;16.322;2023-03-21T14:06:30;3.03;;;1.20;;
18265;SDS011;9259;48.194;16.322;2023-03-21T14:09:00;2.38;;;1.30;;
18265;SDS011;9259;48.194;16.322;2023-03-21T14:11:29;2.33;;;1.27;;
18265;SDS011;9259;48.194;16.322;2023-03-21T14:13:58;2.83;;;1.00;;
18265;SDS011;9259;48.194;16.322;2023-03-21T14:16:30;3.45;;;1.00;;
18265;SDS011;9259;48.194;16.322;2023-03-21T14:18:59;1.83;;;1.10;;
18265;SDS011;9259;48.194;16.322;2023-03-21T14:21:30;1.77;;;0.93;;
18265;SDS011;9259;48.194;16.322;2023-03-21T14:24:01;2.33;;;1.15;;
18265;SDS011;9259;48.194;16.322;2023-03-21T14:26:31;1.40;;;0.98;;
18265;SDS011;9259;48.194;16.322;2023-03-21T14:29:03;1.83;;;1.10;;
18265;SDS011;9259;48.194;16.322;2023-03-21T14:31:33;3.20;;;1.50;;
18265;SDS011;9259;48.194;16.322;2023-03-21T14:34:02;3.08;;;1.60;;
18265;SDS011;9259;48.194;16.322;2023-03-21T14:36:31;3.72;;;1.55;;
18265;SDS011;9259;48.194;16.322;2023-03-21T14:39:09;2.83;;;1.20;;
18265;SDS011;9259;48.194;16.322;2023-03-21T14:41:43;3.47;;;1.33;;
18265;SDS011;9259;48.194;16.322;2023-03-21T14:44:18;2.10;;;1.50;;
18265;SDS011;9259;48.194;16.322;2023-03-21T14:46:53;1.73;;;1.17;;
18265;SDS011;9259;48.194;16.322;2023-03-21T14:49:28;1.98;;;1.33;;
18265;SDS011;9259;48.194;16.322;2023-03-21T14:51:58;3.33;;;1.30;;
18265;SDS011;9259;48.194;16.322;2023-03-21T14:54:28;3.78;;;1.50;;
18265;SDS011;9259;48.194;16.322;2023-03-21T14:56:58;3.35;;;1.83;;
18265;SDS011;9259;48.194;16.322;2023-03-21T14:59:30;4.95;;;1.70;;
18265;SDS011;9259;48.194;16.322;2023-03-21T15:02:03;5.10;;;1.95;;
18265;SDS011;9259;48.194;16.322;2023-03-21T15:04:41;3.40;;;1.80;;
18265;SDS011;9259;48.194;16.322;2023-03-21T15:07:24;6.90;;;2.20;;
18265;SDS011;9259;48.194;16.322;2023-03-21T15:09:55;4.75;;;2.45;;
18265;SDS011;9259;48.194;16.322;2023-03-21T15:12:25;6.45;;;2.80;;
18265;SDS011;9259;48.194;16.322;2023-03-21T15:14:53;4.53;;;2.20;;
18265;SDS011;9259;48.194;16.322;2023-03-21T15:17:23;5.25;;;2.50;;
18265;SDS011;9259;48.194;16.322;2023-03-21T15:19:52;4.32;;;2.70;;